HOURLY OBS INDEX

094

Southeast

CAMPANIA (KINCORA)

Site: 094212
Alt: 45.0m
23km NNE of HOBART


  Time     Wind        Temp  DP   Baro     Rain since   Rain past  Vis(m), Cloud(base in m), Weather
  local        km/h                         9am  last   hr   10m    
Sun 12:00   NW 35/ 52  15.9  6.6  ------    0.2   0.0   0.2   0.0   ----- 
Sun 12:16   NW 33/ 54  16.7  7.1  ------    0.2   0.0  ----   0.0   ----- 
Sun 12:30   NW 35/ 58  17.0  7.1  ------    0.2   0.0   0.0   0.0   ----- 
Sun 13:00   NW 37/ 58  17.7  8.0  ------    0.2   0.0   0.0   0.0   ----- 
Sun 13:30   NW 39/ 58  16.5  6.1  ------    0.2   0.0   0.0   0.0   ----- 
Sun 14:00  WNW 28/ 43  16.7  6.2  ------    0.2   0.0   0.0   0.0   ----- 
Sun 14:26  WNW 30/ 61  16.9  5.5  ------    0.2   0.0  ----   0.0   ----- 
Sun 14:30  WNW 33/ 61  16.7  5.9  ------    0.2   0.0   0.0   0.0   ----- 
Sun 15:00   NW 33/ 50  15.8  5.1  ------    0.2   0.0   0.0   0.0   ----- 
Sun 15:04   NW 33/ 52  15.9  4.9  ------    0.2   0.0  ----   0.0   ----- 
Sun 15:16   NW 43/ 70  15.2  4.9  ------    0.2   0.0   0.0   0.0   ----- 
Sun 15:30  WNW 37/ 65  14.0  6.4  ------    0.2   0.0   0.0   0.0   ----- 
Sun 16:00   NW 17/ 24  13.6  8.4  ------    0.6   0.0   0.0   0.0   ----- 
Sun 16:30   NW 26/ 43  14.2  6.1  ------    0.6   0.0   0.0   0.0   ----- 
Sun 16:47   NW 28/ 56  13.8  4.9  ------    0.6   0.0   0.0   0.0   ----- 
Sun 17:00   NW 30/ 50  13.7  4.8  ------    0.6   0.0   0.0   0.0   ----- 

CAPE BRUNY (CAPE BRUNY)

Site: 094198
Alt: 59.7m
52km S of HUONVILLE


  Time     Wind        Temp  DP   Baro     Rain since   Rain past  Vis(m), Cloud(base in m), Weather
  local        km/h                         9am  last   hr   10m    
Sun 12:00  NNW 11/ 20  13.0 10.4   997.0    4.4   0.0   0.0   0.0   ----- 
Sun 12:07   NW 32/ 39  13.9  9.9   996.4    4.4   0.0  ----   0.0   ----- 
Sun 12:21  WNW 32/ 54  14.1  7.9   996.0    4.4   0.0  ----   0.0   ----- 
Sun 12:30  WNW 39/ 56  13.1  6.9   996.0    4.4   0.0   0.0   0.0   ----- 
Sun 12:31  WNW 37/ 56  13.1  6.7   996.0    4.4   0.0  ----   0.0   ----- 
Sun 12:43    W 46/ 56  11.8  8.1   996.5    4.6   0.2  ----   0.2   ----- 
Sun 13:00    W 54/ 70  11.6  7.5   996.5    4.8   0.2   0.4   0.2   ----- 
Sun 13:05    W 54/ 72  11.8  6.9   996.3    4.8   0.0  ----   0.0   ----- 
Sun 13:30    W 59/ 72  13.1  7.3   995.8    4.8   0.0   0.4   0.0   ----- 
Sun 13:36    W 54/ 72  13.4  7.6   995.9    4.8   0.0  ----   0.0   ----- 
Sun 14:00    W 58/ 80  12.2  7.1   996.4    4.8   0.0   0.0   0.0   ----- 
Sun 14:07    W 80/ 93  11.6  4.8   996.4    4.8   0.0  ----   0.0   ----- 
Sun 14:11    W 74/ 93  11.2  5.3   996.5    4.8   0.0  ----   0.0   ----- 
Sun 14:19    W 48/ 61  11.6  5.9   996.4    4.8   0.0  ----   0.0   ----- 
Sun 14:20    W 50/ 70  11.7  5.8   996.3    4.8   0.0  ----   0.0   ----- 
Sun 14:30  WNW 46/ 63  12.1  5.3   996.2    4.8   0.0   0.0   0.0   ----- 
Sun 15:00    W 48/ 65  12.8  5.0   996.3    4.8   0.0   0.0   0.0   ----- 
Sun 15:11    W 50/ 70  12.2  4.9   996.1    4.8   0.0   0.0   0.0   ----- 
Sun 15:30    W 41/ 54  12.3  5.5   995.9    4.8   0.0   0.0   0.0   ----- 
Sun 15:40    W 41/ 65  12.3  4.5   996.1    4.8   0.0   0.0   0.0   ----- 
Sun 15:45    W 63/ 74  12.0  4.7   996.0    4.8   0.0   0.0   0.0   ----- 
Sun 15:52    W 56/ 74  11.6  5.3   995.9    4.8   0.0   0.0   0.0   ----- 
Sun 16:00    W 48/ 61  11.6  5.3   996.3    4.8   0.0   0.0   0.0   ----- 
Sun 16:23    W 43/ 61  11.2  4.4   996.2    4.8   0.0   0.0   0.0   ----- 
Sun 16:30    W 48/ 61  11.1  5.0   996.1    4.8   0.0   0.0   0.0   ----- 
Sun 17:00    W 54/ 63  10.1  4.9   996.7    4.8   0.0   0.0   0.0   ----- 

DENNES POINT

Site: 094255
Alt: 5.7m
20km S of HOBART


  Time     Wind        Temp  DP   Baro     Rain since   Rain past  Vis(m), Cloud(base in m), Weather
  local        km/h                         9am  last   hr   10m    
Sun 12:00  ENE  4/  7  14.0 10.8   997.8    0.8   0.4   0.8   0.0   ----- 
Sun 12:07  WNW 28/ 39  14.4  9.0   997.5    0.8   0.0  ----   0.0   ----- 
Sun 12:08  WNW 32/ 58  14.5  8.5   997.5    0.8   0.0  ----   0.0   ----- 
Sun 12:30    W 46/ 69  15.5  6.5   996.3    0.8   0.0   0.4   0.0   ----- 
Sun 13:00  WNW 41/ 61  16.5  7.2   996.8    0.8   0.0   0.0   0.0   ----- 
Sun 13:28  WSW 39/ 50  14.1  7.9   996.5    1.0   0.2  ----   0.0   ----- 
Sun 13:30  WSW 39/ 50  14.1  8.1   996.6    1.0   0.0   0.2   0.0   ----- 
Sun 14:00    W 45/ 54  15.1  6.9   996.4    1.0   0.0   0.2   0.0   ----- 
Sun 14:04    W 43/ 61  15.3  6.6   996.4    1.0   0.0  ----   0.0   ----- 
Sun 14:30  WNW 41/ 67  15.7  6.2   996.4    1.0   0.0   0.0   0.0   ----- 
Sun 15:00    W 39/ 46  14.1  7.6   996.7    1.0   0.0   0.0   0.0   ----- 
Sun 15:30    W 35/ 46  13.2  6.5   996.7    1.0   0.0   0.0   0.0   ----- 
Sun 16:00  WSW 28/ 35  13.5  6.4   996.6    1.0   0.0   0.0   0.0   ----- 
Sun 16:30  WSW 28/ 37  12.2  6.0   996.9    1.0   0.0   0.0   0.0   ----- 
Sun 17:00    W 37/ 48  10.7  6.6   997.6    1.0   0.0   0.0   0.0   ----- 

DUNALLEY (STROUD POINT)

Site: 094254
Alt: 12.4m
27km N of PORT ARTHUR


  Time     Wind        Temp  DP   Baro     Rain since   Rain past  Vis(m), Cloud(base in m), Weather
  local        km/h                         9am  last   hr   10m    
Sun 12:00  WNW 45/ 63  17.5  6.7   998.0    0.0   0.0   0.0   0.0   ----- 
Sun 12:30  WNW 48/ 76  17.1  6.3   997.7    0.0   0.0   0.0   0.0   ----- 
Sun 13:00  WNW 37/ 54  17.5  7.0   997.1    0.0   0.0   0.0   0.0   ----- 
Sun 13:03  WNW 35/ 54  17.6  6.8   997.0    0.0   0.0  ----   0.0   ----- 
Sun 13:30  WNW 37/ 59  18.2  6.1   997.0    0.0   0.0   0.0   0.0   ----- 
Sun 14:00  WNW 50/ 69  17.5  5.1   996.9    0.0   0.0   0.0   0.0   ----- 
Sun 14:09  WNW 48/ 70  17.1  5.4   996.8    0.0   0.0  ----   0.0   ----- 
Sun 14:30  WNW 50/ 69  16.9  4.6   996.7    0.0   0.0   0.0   0.0   ----- 
Sun 15:00  WNW 43/ 58  16.9  5.2   997.3    0.0   0.0   0.0   0.0   ----- 
Sun 15:09  WNW 41/ 63  16.2  4.9   997.2    0.0   0.0   0.0   0.0   ----- 
Sun 15:30    W 30/ 43  14.4  6.7   997.3    0.0   0.0   0.0   0.0   ----- 
Sun 15:53    W 28/ 58  15.7  5.6   997.2    0.0   0.0   0.0   0.0   ----- 
Sun 16:00  WNW 46/ 61  15.5  4.8   997.1    0.0   0.0   0.0   0.0   ----- 
Sun 16:07  WNW 41/ 61  15.6  4.9   997.1    0.0   0.0   0.0   0.0   ----- 
Sun 16:30   NW 37/ 59  14.9  4.3   997.2    0.0   0.0   0.0   0.0   ----- 
Sun 17:00  WNW 37/ 59  14.6  4.3   997.5    0.0   0.0   0.0   0.0   ----- 

GROVE (RESEARCH STATION)

Site: 094220
Alt: 65.0m
5km NNE of HUONVILLE


  Time     Wind        Temp  DP   Baro     Rain since   Rain past  Vis(m), Cloud(base in m), Weather
  local        km/h                         9am  last   hr   10m    
Sun 12:00    W 30/ 48  14.7  6.0  ------    1.8   0.0   1.4   0.0   ----- 
Sun 12:30   NW 17/ 30  15.4  6.7  ------    1.8   0.0   0.0   0.0   ----- 
Sun 12:51   NW 28/ 46  15.1  5.9  ------    1.8   0.0  ----   0.0   ----- 
Sun 13:00   NW 24/ 43  15.2  6.7  ------    1.8   0.0   0.0   0.0   ----- 
Sun 13:16    W 32/ 52  13.6  5.5  ------    1.8   0.0  ----   0.0   ----- 
Sun 13:30  WSW 26/ 45  13.1  6.7  ------    1.8   0.0   0.0   0.0   ----- 
Sun 14:00  NNW 24/ 43  14.9  6.2  ------    1.8   0.0   0.0   0.0   ----- 
Sun 14:30  WNW 22/ 39  15.1  5.6  ------    1.8   0.0   0.0   0.0   ----- 
Sun 15:00    W 13/ 24  13.3  7.1  ------    1.8   0.0   0.0   0.0   ----- 
Sun 15:30   SW 17/ 30  11.8  5.4  ------    1.8   0.0   0.0   0.0   ----- 
Sun 16:00   SW 22/ 39  12.3  5.7  ------    1.8   0.0   0.0   0.0   ----- 
Sun 16:30   SW 20/ 30  10.0  6.7  ------    2.0   0.0   0.0   0.2   ----- 
Sun 17:00  WSW 15/ 20  10.0  5.8  ------    3.2   0.0   0.0   0.0   ----- 

HARTZ MOUNTAIN (KEOGHS PIMPLE)

Site: 094191
Alt: 831.0m
30km SW of HUONVILLE


  Time     Wind        Temp  DP   Baro     Rain since   Rain past  Vis(m), Cloud(base in m), Weather
  local        km/h                         9am  last   hr   10m    
Sun 12:00  WNW 52/ 83   6.1  4.9  ------    6.0   0.0   0.0   0.0   ----- 
Sun 12:30  WNW 58/ 87   5.4  4.4  ------    6.0   0.0   0.0   0.0   ----- 
Sun 13:00    W 52/ 85   4.8  4.1  ------    6.2   0.2   0.2   0.0   ----- 
Sun 13:30  WNW 48/ 87   4.9  4.2  ------    6.2   0.0   0.2   0.0   ----- 
Sun 13:52    W 70/ 98   3.8  3.1  ------    6.8   0.6  ----   0.2   ----- 
Sun 13:58    W 48/ 63   3.7  3.1  ------    6.8   0.0  ----   0.2   ----- 
Sun 14:00    W 45/ 67   3.7  3.1  ------    6.8   0.0   0.6   0.0   ----- 
Sun 14:30  WNW 56/ 82   3.4  2.7  ------    6.8   0.0   0.6   0.0   ----- 
Sun 14:53  WNW 37/ 52   3.5  2.9  ------    6.8   0.0  ----   0.0   ----- 
Sun 14:54  WNW 39/ 58   3.4  2.8  ------    6.8   0.0  ----   0.0   ----- 
Sun 14:57  WNW 43/ 76   3.5  2.9  ------    6.8   0.0  ----   0.0   ----- 
Sun 15:00  WNW 43/ 76   3.6  3.0  ------    6.8   0.0   0.0   0.0   ----- 
Sun 15:30    W 48/ 80   3.9  2.7  ------    7.0   0.0   0.0   0.0   ----- 
Sun 16:00    W 39/ 65   3.3  2.6  ------    7.0   0.0   0.0   0.0   ----- 
Sun 16:30  WNW 48/ 69   2.7  2.0  ------    7.0   0.0   0.0   0.0   ----- 
Sun 16:49  WNW 41/ 91   2.7  2.1  ------    7.0   0.0   0.0   0.0   ----- 
Sun 16:50  WNW 65/106   2.7  2.1  ------    7.0   0.0   0.0   0.0   ----- 
Sun 17:00    W 59/109   2.6  1.7  ------    7.0   0.0   0.0   0.0   ----- 

HOBART (ELLERSLIE ROAD)

Site: 094029
Alt: 50.5m
1km SSE of HOBART


  Time     Wind        Temp  DP   Baro     Rain since   Rain past  Vis(m), Cloud(base in m), Weather
  local        km/h                         9am  last   hr   10m    
Sun 12:00   NW 26/ 39  16.1  9.8   998.1    0.0   0.0   0.0   0.0   ----- 
Sun 12:02  WNW 28/ 50  15.7  8.4   998.2    0.0   0.0  ----   0.0   ----- 
Sun 12:30   NW 26/ 50  16.3  8.0   997.2    0.0   0.0   0.0   0.0   ----- 
Sun 12:31   NW 28/ 50  16.6  8.1   997.2    0.0   0.0  ----   0.0   ----- 
Sun 13:00   NW 33/ 50  17.4  7.2   996.9    0.0   0.0   0.0   0.0   ----- 
Sun 13:01  WNW 32/ 50  17.5  7.3   996.9    0.0   0.0  ----   0.0   ----- 
Sun 13:30  WNW 28/ 45  17.7  7.7   996.6    0.2   0.2   0.2   0.0   ----- 
Sun 13:36  WNW 28/ 50  17.6  8.5   996.7    0.2   0.0  ----   0.0   ----- 
Sun 14:00  WNW 33/ 58  16.8  5.7   996.7    0.2   0.0   0.2   0.0   ----- 
Sun 14:30  WNW 30/ 50  16.4  6.8   997.0    0.2   0.0   0.0   0.0   ----- 
Sun 15:00   NW 30/ 46  16.0  5.3   997.3    0.2   0.0   0.0   0.0   ----- 
Sun 15:03   NW 32/ 52  16.0  5.0   997.3    0.2   0.0  ----   0.0   ----- 
Sun 15:30  WNW 28/ 63  15.1  5.3   997.4    0.2   0.0   0.0   0.0   ----- 
Sun 16:00   NW 30/ 45  14.0  6.1   996.6    0.2   0.0   0.0   0.0   ----- 
Sun 16:12   NW 30/ 48  13.9  5.5   996.6    0.2   0.0   0.0   0.0   ----- 
Sun 16:30  WNW 41/ 59  13.0  4.9   996.9    0.4   0.0   0.0   0.2   ----- 
Sun 17:00  WNW 20/ 32  12.1  5.7   997.7    0.4   0.0   0.0   0.0   ----- 

HOBART AIRPORT

Site: 094008
Alt: 4.0m
16km ENE of HOBART


  Time     Wind        Temp  DP   Baro     Rain since   Rain past  Vis(m), Cloud(base in m), Weather
  local        km/h                         9am  last   hr   10m    
Sun 12:00   NW 46/ 65  16.1  7.1   998.1    0.2   0.0   0.2   0.0  *10000|FE 900st SC1260cu|diSh// 
Sun 12:30   NW 35/ 52  16.8  6.3   997.9    0.2   0.0   0.0   0.0  *10000|FE 960st SC1230cu 
Sun 12:34   NW 32/ 50  16.3  6.2   997.8    0.2   0.0  ----   0.0  *10000|FE 960st SC1230cu 
Sun 13:00   NW 28/ 41  18.0  7.1   997.0    0.2   0.0   0.0   0.0  *10000|FE1020st SC1290cu 
Sun 13:01   NW 30/ 50  18.3  7.7   997.1    0.2   0.0  ----   0.0  *10000|FE1020st SC1290cu 
Sun 13:04   NW 37/ 74  18.9  8.0   997.1    0.2   0.0  ----   0.0  *10000|FE1020st SC1290cu 
Sun 13:08   NW 58/ 74  18.2  6.4   996.7    0.2   0.0  ----   0.0  *10000|FE1020st SC1290cu 
Sun 13:30   NW 50/ 69  16.8  6.9   997.0    0.2   0.0   0.0   0.0  *10000|FE1020st SC1320cu|ltShRA 
Sun 14:00   NW 50/ 70  17.0  6.2   996.9    0.2   0.0   0.0   0.0  *10000|FE1080st SC1350cu|diSh// 
Sun 14:30  WNW 37/ 61  17.3  5.3   996.7    0.2   0.0   0.0   0.0  *10000|SC1440cu 
Sun 15:00  WNW 32/ 52  16.8  5.1   997.4    0.2   0.0   0.0   0.0  *10000|SC1440cu 
Sun 15:30  WNW 28/ 43  15.6  5.8   997.4    0.2   0.0   0.0   0.0  *10000|FE 960st BR1380cu|ltShRA 
Sun 15:43  WNW 28/ 52  15.6  7.1   997.6    0.2   0.0   0.0   0.0  *10000|FE1050st SC1380cu|ltShRA 
Sun 16:00  NNW 33/ 45  15.1  6.4   996.8    0.2   0.0   0.0   0.0  *10000|FE1020st 
Sun 16:03  NNW 35/ 54  15.1  6.1   996.8    0.2   0.0   0.0   0.0  *10000|FE1020st 
Sun 16:30   NW 50/ 65  14.4  5.0   996.6    0.2   0.0   0.0   0.0  *10000|FE1020st 
Sun 16:40   NW 45/ 67  14.4  4.7   997.0    0.2   0.0   0.0   0.0  *10000|FE1020sc 
Sun 17:00   NW 46/ 61  13.9  4.2   997.4    0.2   0.0   0.0   0.0  *10000|FE1020st SC1350cu 

HOBART AIRPORT EAST

Site: 094250
Alt: 2.2m
km of


  Time     Wind        Temp  DP   Baro     Rain since   Rain past  Vis(m), Cloud(base in m), Weather
  local        km/h                         9am  last   hr   10m    
Sun 12:00  ------/---  16.0  6.7   998.2    0.0   0.0   0.0   0.0   10000 
Sun 12:30  ------/---  16.8  7.4   997.7    0.0   0.0   0.0   0.0   10000|SC1290 SC1410 SC1620 
Sun 13:00  ------/---  18.3  7.7   996.9    0.0   0.0   0.0   0.0   10000|SC1290 SC1560 BR1800 
Sun 13:30  ------/---  16.4  7.3   997.0    0.0   0.0   0.0   0.0   10000|BR1530 BR1920 
Sun 14:00  ------/---  16.8  5.7   996.9    0.0   0.0   0.0   0.0   10000|SC1530 SC2250 
Sun 14:30  ------/---  17.3  5.6   996.7    0.0   0.0   0.0   0.0   10000|SC1590 
Sun 15:00  ------/---  17.0  5.9   997.2    0.0   0.0   0.0   0.0   10000|SC1650 SC2070 
Sun 15:30  ------/---  15.9  5.8   997.2    0.0   0.0   0.0   0.0   10000|BR1650 BR2070 OC2520 
Sun 16:00  ------/---  14.9  5.7   996.7    0.0   0.0   0.0   0.0   10000|SC1410 SC1620 
Sun 16:30  ------/---  14.4  5.2   996.9    0.0   0.0   0.0   0.0   10000|SC1590 
Sun 17:00  ------/---  13.9  4.5   997.3    0.0   0.0   0.0   0.0   10000|SC1380 

KUNANYI (MOUNT WELLINGTON PINNACLE)

Site: 094087
Alt: 1260.5m
7km WSW of HOBART


  Time     Wind        Temp  DP   Baro     Rain since   Rain past  Vis(m), Cloud(base in m), Weather
  local        km/h                         9am  last   hr   10m    
Sun 12:00    W 58/ 89   3.0  3.0  ------    2.4   1.2   2.0   0.6   ----- 
Sun 12:28  WNW 80/ 95   3.9  3.9  ------    2.6   0.2  ----   0.0   ----- 
Sun 12:30  WNW 76/ 95   4.1  4.1  ------    2.6   0.0   2.0   0.0   ----- 
Sun 12:55  WNW 56/ 76   4.3  4.3  ------    2.6   0.0  ----   0.0   ----- 
Sun 13:00  WNW 54/ 76   4.5  4.5  ------    2.6   0.0   0.2   0.0   ----- 
Sun 13:30  WNW 63/ 82   4.1  4.1  ------    2.6   0.0   0.0   0.0   ----- 
Sun 13:33  WNW 61/ 82   3.9  3.8  ------    2.6   0.0  ----   0.0   ----- 
Sun 14:00  WNW 56/ 72   3.5  3.5  ------    2.6   0.0   0.0   0.0   ----- 
Sun 14:19    W 48/ 67   3.6  3.6  ------    2.6   0.0  ----   0.0   ----- 
Sun 14:30    W 54/ 74   3.5  3.5  ------    2.8   0.2   0.2   0.2   ----- 
Sun 15:00    W 59/ 89   3.2  2.8  ------    2.8   0.0   0.2   0.0   ----- 
Sun 15:30  WNW 59/ 87   2.7  2.7  ------    2.8   0.0   0.0   0.0   ----- 
Sun 16:00   NW 58/ 76   2.8  2.8  ------    2.8   0.0   0.0   0.0   ----- 
Sun 16:05   NW 54/ 74   2.7  2.4  ------    2.8   0.0   0.0   0.0   ----- 
Sun 16:30  WNW 56/ 76   1.8  1.8  ------    3.0   0.0   0.0   0.0   ----- 
Sun 17:00  WNW 52/ 63   1.4  1.4  ------    3.0   0.0   0.0   0.0   ----- 
Sun 17:03  WNW 50/ 76   1.3  1.3  ------    3.0   0.0   0.0   0.0   ----- 

MAATSUYKER ISLAND LIGHTHOUSE

Site: 094041
Alt: 146.5m
94km SW of HUONVILLE


  Time     Wind        Temp  DP   Baro     Rain since   Rain past  Vis(m), Cloud(base in m), Weather
  local        km/h                         9am  last   hr   10m    
Sun 12:00   NW 93/135   9.5  7.3   993.8    1.2   0.2   1.2   0.4   ----- 
Sun 12:30   NW100/119  10.3  6.1   993.8    1.2   0.0   1.2   0.0   ----- 
Sun 12:56   NW 80/ 96  10.7  6.6   994.1    1.2   0.0  ----   0.0   ----- 
Sun 12:58   NW 80/ 98  10.7  6.6   994.1    1.2   0.0  ----   0.0   ----- 
Sun 13:00   NW 82/ 98  10.8  6.7   994.2    1.2   0.0   0.0   0.0   ----- 
Sun 13:05   NW 80/ 98  10.8  6.9   994.5    1.2   0.0  ----   0.0   ----- 
Sun 13:30   NW 83/102  10.8  5.6   994.0    1.2   0.0   0.0   0.0   ----- 
Sun 14:00   NW 83/ 96  10.7  5.7   994.0    1.2   0.0   0.0   0.0   ----- 
Sun 14:01   NW 83/102  10.6  5.4   993.6    1.2   0.0  ----   0.0   ----- 
Sun 14:30   NW 85/102  10.5  5.5   993.9    1.2   0.0   0.0   0.0   ----- 
Sun 14:32   NW 83/102  10.5  5.7   994.0    1.2   0.0  ----   0.0   ----- 
Sun 15:00   NW 85/100  10.3  4.9   993.6    1.2   0.0   0.0   0.0   ----- 
Sun 15:08   NW 85/104  10.4  5.6   993.9    1.2   0.0   0.0   0.0   ----- 
Sun 15:30   NW 83/104  10.3  5.5   993.5    1.2   0.0   0.0   0.0   ----- 
Sun 16:00   NW 83/100  10.2  4.8   993.7    1.2   0.0   0.0   0.0   ----- 
Sun 16:18   NW 78/ 98  10.1  4.9   993.7    1.2   0.0   0.0   0.0   ----- 
Sun 16:30   NW 87/104  10.1  4.5   993.6    1.2   0.0   0.0   0.0   ----- 
Sun 16:33   NW 89/109   9.9  3.4   993.4    1.2   0.0   0.0   0.0   ----- 
Sun 17:00   NW 82/102   9.7  4.1   994.1    1.2   0.0   0.0   0.0   ----- 

TASMAN ISLAND

Site: 094155
Alt: 240.0m
17km SE of PORT ARTHUR


  Time     Wind        Temp  DP   Baro     Rain since   Rain past  Vis(m), Cloud(base in m), Weather
  local        km/h                         9am  last   hr   10m    
Sun 12:00    W 13/ 35  11.9  7.6   997.9    0.2   0.0   0.2   0.2   ----- 
Sun 12:30  WNW 15/ 33  11.1 10.0   997.7    0.8   0.6   0.8   0.0   ----- 
Sun 12:58  WNW 28/ 50  12.4  8.9   996.9    0.8   0.0  ----   0.0   ----- 
Sun 13:00  WNW 30/ 56  12.5  8.8   996.8    0.8   0.0   0.6   0.0   ----- 
Sun 13:30  WNW 41/ 63  13.4  6.0   996.2    0.8   0.0   0.0   0.0   ----- 
Sun 14:00    W 19/ 52  12.5  5.9   996.2    0.8   0.0   0.0   0.0   ----- 
Sun 14:30  WNW 13/ 37  13.0  6.6   996.6    0.8   0.0   0.0   0.0   ----- 
Sun 15:00    W 15/ 39  12.3  5.9   996.4    0.8   0.0   0.0   0.0   ----- 
Sun 15:30   NW 19/ 39  10.8  6.4   996.8    0.8   0.0   0.0   0.0   ----- 
Sun 16:00  SSW  9/ 28  10.8  5.1   996.7    0.8   0.0   0.0   0.0   ----- 
Sun 16:30   SW 11/ 33  10.4  5.0   996.7    0.8   0.0   0.0   0.0   ----- 
Sun 17:00  WSW  9/ 28  10.7  5.0   996.8    0.8   0.0   0.0   0.0   ----- 

TUNNACK FIRE STATION

Site: 094195
Alt: 461.5m
19km SSE of OATLANDS


  Time     Wind        Temp  DP   Baro     Rain since   Rain past  Vis(m), Cloud(base in m), Weather
  local        km/h                         9am  last   hr   10m    
Sun 12:00  NNW 20/ 24  10.9  8.7   999.9    0.4   0.2   0.2   0.0   ----- 
Sun 12:14  NNW 28/ 45  12.0  8.3   999.5    0.4   0.0  ----   0.0   ----- 
Sun 12:16  NNW 32/ 56  12.3  7.6   999.4    0.4   0.0  ----   0.0   ----- 
Sun 12:30   NW 32/ 54  12.9  8.4   999.4    0.4   0.0   0.2   0.0   ----- 
Sun 13:00  WNW 24/ 35  12.9  8.8   999.2    0.4   0.0   0.0   0.0   ----- 
Sun 13:14   NW 46/ 54  12.7  6.1   998.9    0.4   0.0  ----   0.0   ----- 
Sun 13:30  WNW 26/ 39  13.3  6.4   998.8    0.4   0.0   0.0   0.0   ----- 
Sun 13:32  WNW 28/ 58  13.3  6.2   998.8    0.4   0.0  ----   0.0   ----- 
Sun 13:38  WNW 46/ 82  13.3  5.2   998.7    0.4   0.0  ----   0.0   ----- 
Sun 14:00  WNW 46/ 70  13.8  3.9   998.4    0.4   0.0   0.0   0.0   ----- 
Sun 14:30   NW 46/ 67  13.7  4.0   998.2    0.4   0.0   0.0   0.0   ----- 
Sun 15:00  WNW 43/ 78  10.3  5.1   998.8    0.6   0.2   0.2   0.2   ----- 
Sun 15:01   NW 63/ 82   9.9  5.5   998.9    0.8   0.2  ----   0.4   ----- 
Sun 15:15  WNW 39/ 50   9.3  8.1   999.2    1.4   0.0   0.0   0.2   ----- 
Sun 15:22  WNW 32/ 50  10.1  7.9   999.0    1.4   0.0   0.0   0.0   ----- 
Sun 15:30   NW 28/ 41  10.0  7.3   998.9    1.4   0.0   0.0   0.0   ----- 
Sun 15:43  WNW 30/ 48  10.0  6.3   998.7    1.4   0.0   0.0   0.0   ----- 
Sun 16:00   NW 30/ 43  10.4  5.8   998.3    1.4   0.0   0.0   0.0   ----- 
Sun 16:04   NW 32/ 54  10.4  5.4   998.4    1.4   0.0   0.0   0.0   ----- 
Sun 16:30   NW 28/ 39  10.6  5.6   998.2    1.4   0.0   0.0   0.0   ----- 
Sun 16:54   NW 30/ 59  10.3  4.2   998.3    1.4   0.0   0.0   0.0   ----- 
Sun 17:00  WNW 50/ 65  10.3  3.3   998.2    1.4   0.0   0.0   0.0   ----- 
Sun 17:04   NW 46/ 65  10.2  3.5   998.3    1.4   0.0   0.0   0.0   -----